createdAt,value
2019-01-03T00:02:23.807Z,102154.77
2019-01-03T00:10:04.957Z,102142.84
2019-01-03T00:13:47.277Z,102152.72
2019-01-03T00:17:22.904Z,102143.64
2019-01-03T00:21:05.105Z,102036.06
2019-01-03T00:24:40.895Z,102138.44
2019-01-03T00:28:17.818Z,102132.69
2019-01-03T00:31:53.440Z,102141.72
2019-01-03T00:35:35.657Z,102155.78
2019-01-03T00:39:00.855Z,102152.30
2019-01-03T00:42:42.813Z,102152.58
2019-01-03T00:46:18.675Z,102158.06
2019-01-03T00:50:00.617Z,102069.12
2019-01-03T00:53:32.797Z,102083.31
2019-01-03T00:57:15.025Z,102154.41
2019-01-03T01:00:49.635Z,102076.52
2019-01-03T01:04:25.046Z,102167.17
2019-01-03T01:08:07.270Z,102167.62
2019-01-03T01:11:42.542Z,102172.74
2019-01-03T01:15:17.993Z,102172.36
2019-01-03T01:18:56.647Z,102182.86
2019-01-03T01:22:38.931Z,102185.03
2019-01-03T01:26:14.250Z,102195.64
2019-01-03T01:29:49.985Z,102202.85
2019-01-03T01:33:31.240Z,102206.22
2019-01-03T01:37:06.219Z,102214.40
2019-01-03T01:40:44.183Z,102216.98
2019-01-03T01:44:26.396Z,102224.64
2019-01-03T01:47:57.241Z,102219.55
2019-01-03T01:51:32.174Z,102201.84
2019-01-03T01:55:07.555Z,102229.12
2019-01-03T01:58:49.816Z,102225.00
2019-01-03T02:02:25.866Z,102221.91
2019-01-03T02:06:00.835Z,102227.52
2019-01-03T02:09:42.794Z,102223.07
2019-01-03T02:13:07.698Z,102207.98
2019-01-03T02:16:42.624Z,102214.81
2019-01-03T02:20:24.689Z,102208.42
2019-01-03T02:24:08.583Z,102207.27
2019-01-03T02:27:44.290Z,102215.11
2019-01-03T02:31:26.242Z,102208.52
2019-01-03T02:35:01.476Z,102207.30
2019-01-03T02:38:42.867Z,102216.52
2019-01-03T02:42:24.821Z,102213.42
2019-01-03T02:45:59.401Z,102199.67
2019-01-03T02:49:41.684Z,102198.06
2019-01-03T02:53:16.520Z,102194.88
2019-01-03T02:56:59.058Z,102178.28
2019-01-03T03:00:33.872Z,102175.59
2019-01-03T03:04:15.830Z,102175.64
2019-01-03T03:07:51.641Z,102166.61
2019-01-03T03:11:33.977Z,102167.25
2019-01-03T03:15:15.722Z,102166.68
2019-01-03T03:18:46.208Z,102163.66
2019-01-03T03:22:21.322Z,102177.45
2019-01-03T03:26:04.255Z,102169.95
2019-01-03T03:29:39.043Z,102167.90
2019-01-03T03:33:21.009Z,102179.67
2019-01-03T03:36:55.611Z,102186.13
2019-01-03T03:40:30.804Z,102172.97
2019-01-03T03:44:12.759Z,102171.48
2019-01-03T03:47:47.971Z,102162.20
2019-01-03T03:51:16.722Z,102162.09
2019-01-03T03:55:00.299Z,102159.14
2019-01-03T03:58:41.884Z,102165.62
2019-01-03T04:02:23.870Z,102171.58
2019-01-03T04:05:59.180Z,102166.20
2019-01-03T04:09:41.203Z,102163.97
2019-01-03T04:13:21.990Z,102161.77
2019-01-03T04:17:04.231Z,102160.25
2019-01-03T04:20:39.093Z,102157.11
2019-01-03T04:24:21.053Z,102160.62
2019-01-03T04:27:48.795Z,102156.86
2019-01-03T04:31:26.605Z,102156.52
2019-01-03T04:35:08.545Z,102153.43
2019-01-03T04:38:43.623Z,102149.67
2019-01-03T04:42:25.575Z,102042.91
2019-01-03T04:46:00.591Z,102147.52
2019-01-03T04:49:42.606Z,102037.26
2019-01-03T04:53:17.863Z,102136.69
2019-01-03T04:56:59.822Z,102145.33
2019-01-03T05:00:34.800Z,102147.53
2019-01-03T05:04:17.059Z,102147.55
2019-01-03T05:07:57.411Z,102153.36
2019-01-03T05:11:50.154Z,102147.78
2019-01-03T05:15:28.935Z,102151.05
2019-01-03T05:19:04.040Z,102143.23
2019-01-03T05:22:39.322Z,102141.75
2019-01-03T05:26:21.404Z,102137.25
2019-01-03T05:29:56.024Z,102130.63
2019-01-03T05:33:38.555Z,102126.22
2019-01-03T05:37:13.701Z,102129.95
2019-01-03T05:40:49.741Z,102131.18
2019-01-03T05:44:27.201Z,102135.45
2019-01-03T05:48:09.749Z,102144.09
2019-01-03T05:51:51.015Z,102123.91
2019-01-03T05:55:32.981Z,102145.27
2019-01-03T05:59:10.825Z,102150.41
2019-01-03T06:02:52.763Z,102151.81
2019-01-03T06:06:29.886Z,102144.55
2019-01-03T06:10:12.108Z,102150.44
2019-01-03T06:13:45.653Z,102155.67
2019-01-03T06:17:27.885Z,102150.81
2019-01-03T06:21:04.008Z,102155.91
2019-01-03T06:24:46.603Z,102159.84
2019-01-03T06:28:21.704Z,102161.98
2019-01-03T06:31:56.312Z,102141.90
2019-01-03T06:35:38.579Z,102155.91
2019-01-03T06:39:12.026Z,102155.64
2019-01-03T06:42:47.137Z,102160.26
2019-01-03T06:46:29.098Z,102153.95
2019-01-03T06:50:03.814Z,102081.70
2019-01-03T06:53:34.454Z,102155.09
2019-01-03T06:57:16.726Z,102149.38
2019-01-03T07:00:55.264Z,102150.44
2019-01-03T07:04:30.840Z,102157.60
2019-01-03T07:08:13.057Z,102160.56
2019-01-03T07:11:48.498Z,102163.67
2019-01-03T07:19:37.438Z,102161.70
2019-01-03T07:23:11.187Z,102162.87
2019-01-03T07:26:43.587Z,102168.11
2019-01-03T07:30:18.801Z,102181.16
2019-01-03T07:33:53.869Z,102182.23
2019-01-03T07:37:28.409Z,102178.17
2019-01-03T07:41:10.414Z,102186.50
2019-01-03T07:44:45.437Z,102195.33
2019-01-03T07:48:26.570Z,102188.54
2019-01-03T07:52:08.584Z,102194.02
2019-01-03T07:55:33.816Z,102198.88
2019-01-03T07:59:08.643Z,102193.47
2019-01-03T08:02:50.593Z,102199.73
2019-01-03T08:06:22.510Z,102209.42
2019-01-03T08:10:03.401Z,102202.29
2019-01-03T08:13:45.357Z,102211.04
2019-01-03T08:17:20.272Z,102210.22
2019-01-03T08:20:44.373Z,102190.92
2019-01-03T08:24:26.647Z,102206.97
2019-01-03T08:28:02.117Z,102216.30
2019-01-03T08:31:36.855Z,102215.84
2019-01-03T08:35:19.634Z,102220.20
2019-01-03T08:38:54.814Z,102217.76
2019-01-03T08:42:36.780Z,102215.14
2019-01-03T08:46:14.599Z,102218.77
2019-01-03T08:49:56.569Z,102221.85
2019-01-03T08:53:31.978Z,102222.17
2019-01-03T08:57:13.943Z,102227.98
2019-01-03T09:00:48.595Z,102225.61
2019-01-03T09:04:30.549Z,102225.92
2019-01-03T09:08:05.665Z,102227.09
2019-01-03T09:11:47.611Z,102227.82
2019-01-03T09:15:25.452Z,102169.42
2019-01-03T09:19:03.857Z,102229.37
2019-01-03T09:22:46.365Z,102236.75
2019-01-03T09:26:18.244Z,102234.20
2019-01-03T09:29:59.328Z,102238.88
2019-01-03T09:33:41.553Z,102238.28
2019-01-03T09:37:07.761Z,102242.80
2019-01-03T09:40:50.394Z,102239.53
2019-01-03T09:44:21.340Z,102238.53
2019-01-03T09:47:43.733Z,102242.63
2019-01-03T09:50:58.812Z,102234.70
2019-01-03T09:54:21.210Z,102237.20
2019-01-03T09:57:37.106Z,102244.94
2019-01-03T10:00:59.820Z,102163.07
2019-01-03T10:04:15.597Z,102247.72
2019-01-03T10:07:37.997Z,102247.06
2019-01-03T10:10:53.716Z,102236.41
2019-01-03T10:14:16.090Z,102235.81
2019-01-03T10:17:32.077Z,102231.56
2019-01-03T10:20:54.441Z,102235.46
2019-01-03T10:24:09.813Z,102235.81
2019-01-03T10:27:32.212Z,102145.13
2019-01-03T10:30:48.743Z,102221.36
2019-01-03T10:34:04.637Z,102210.88
2019-01-03T10:37:27.345Z,102220.63
2019-01-03T10:40:44.572Z,102211.45
2019-01-03T10:43:59.987Z,102217.24
2019-01-03T10:47:22.655Z,102218.58
2019-01-03T10:50:38.012Z,102220.53
2019-01-03T10:54:00.388Z,102176.31
2019-01-03T10:57:16.199Z,102213.20
2019-01-03T11:00:31.809Z,102204.06
2019-01-03T11:03:54.173Z,102201.82
2019-01-03T11:07:09.485Z,102200.16
2019-01-03T11:10:32.522Z,102194.43
2019-01-03T11:13:47.979Z,102185.41
2019-01-03T11:17:03.427Z,102185.73
2019-01-03T11:20:25.791Z,102178.79
2019-01-03T11:23:42.168Z,102180.70
2019-01-03T11:27:04.552Z,102174.56
2019-01-03T11:30:20.147Z,102181.75
2019-01-03T11:33:35.671Z,102173.69
2019-01-03T11:36:58.385Z,102180.44
2019-01-03T11:40:21.147Z,102168.95
2019-01-03T11:43:36.296Z,102176.14
2019-01-03T11:46:59.450Z,102171.72
2019-01-03T11:50:15.080Z,102171.94
2019-01-03T11:53:38.837Z,102174.09
2019-01-03T11:56:54.479Z,102171.55
2019-01-03T12:00:16.853Z,102168.16
2019-01-03T12:03:32.305Z,102169.83
2019-01-03T12:06:54.698Z,102181.20
2019-01-03T12:10:09.708Z,102177.81
2019-01-03T12:13:32.174Z,102079.73
2019-01-03T12:16:47.504Z,102174.50
2019-01-03T12:20:10.232Z,102181.73
2019-01-03T12:23:26.209Z,102179.69
2019-01-03T12:26:41.265Z,102174.66
2019-01-03T12:29:56.545Z,102170.87
2019-01-03T12:33:12.295Z,102174.30
2019-01-03T12:36:34.675Z,102179.06
2019-01-03T12:39:49.762Z,102171.88
2019-01-03T12:43:05.380Z,102156.77
2019-01-03T12:46:28.399Z,102149.47
2019-01-03T12:49:43.577Z,102151.11
2019-01-03T12:53:06.340Z,102146.70
2019-01-03T12:56:22.497Z,102151.11
2019-01-03T12:59:44.912Z,102152.84
2019-01-03T13:03:00.544Z,102160.16
2019-01-03T13:06:23.032Z,102155.25
2019-01-03T13:09:38.952Z,102160.65
2019-01-03T13:13:01.360Z,102163.15
2019-01-03T13:16:16.786Z,102159.21
2019-01-03T13:19:39.165Z,102174.45
2019-01-03T13:22:55.420Z,102172.52
2019-01-03T13:26:12.225Z,102164.73
2019-01-03T13:29:27.767Z,102157.42
2019-01-03T13:32:43.304Z,102152.92
2019-01-03T13:36:05.881Z,102154.77
2019-01-03T13:39:22.136Z,102146.37
2019-01-03T13:42:37.268Z,102151.55
2019-01-03T13:45:59.644Z,102147.11
2019-01-03T13:49:16.816Z,102146.78
2019-01-03T13:52:32.328Z,102151.05
2019-01-03T13:55:54.822Z,102153.34
2019-01-03T13:59:16.943Z,102154.33
2019-01-03T14:02:39.433Z,102163.25
2019-01-03T14:05:54.855Z,102155.48
2019-01-03T14:09:17.883Z,102157.63
2019-01-03T14:12:33.785Z,102149.73
2019-01-03T14:15:56.157Z,102160.47
2019-01-03T14:19:11.212Z,102162.92
2019-01-03T14:22:26.543Z,102150.72
2019-01-03T14:25:41.941Z,102169.83
2019-01-03T14:29:04.316Z,102175.38
2019-01-03T14:32:26.944Z,102174.33
2019-01-03T14:35:49.724Z,102176.48
2019-01-03T14:39:05.803Z,102136.67
2019-01-03T14:42:28.171Z,102179.58
2019-01-03T14:45:43.796Z,102169.89
2019-01-03T14:49:08.278Z,102171.71
2019-01-03T14:52:24.084Z,102169.65
2019-01-03T14:55:46.783Z,102169.20
2019-01-03T14:59:02.054Z,102165.02
2019-01-03T15:02:24.433Z,102170.38
2019-01-03T15:05:46.558Z,102167.86
2019-01-03T15:09:08.923Z,102105.32
2019-01-03T15:12:24.163Z,102173.02
2019-01-03T15:15:46.880Z,102176.54
2019-01-03T15:19:02.818Z,102175.77
2019-01-03T15:22:18.863Z,102175.08
2019-01-03T15:25:34.738Z,102190.14
2019-01-03T15:28:49.734Z,102164.58
2019-01-03T15:32:12.092Z,102192.61
2019-01-03T15:35:28.005Z,102161.52
2019-01-03T15:38:51.520Z,102195.11
2019-01-03T15:42:07.570Z,102201.73
2019-01-03T15:45:30.583Z,102206.28
2019-01-03T15:48:47.933Z,102201.99
2019-01-03T15:52:10.606Z,102199.37
2019-01-03T15:55:26.490Z,102209.80
2019-01-03T15:58:48.862Z,102201.93
2019-01-03T16:02:04.399Z,102199.84
2019-01-03T16:05:26.778Z,102196.27
2019-01-03T16:08:41.834Z,102093.25
2019-01-03T16:12:04.303Z,102189.65
2019-01-03T16:15:39.878Z,102190.93
2019-01-03T16:19:02.240Z,102192.18
2019-01-03T16:22:17.814Z,102191.83
2019-01-03T16:25:40.182Z,102193.97
2019-01-03T16:28:56.046Z,102109.00
2019-01-03T16:32:18.798Z,102196.90
2019-01-03T16:35:34.329Z,102198.88
2019-01-03T16:38:56.711Z,102153.59
2019-01-03T16:42:06.171Z,102208.69
2019-01-03T16:45:10.248Z,102200.37
2019-01-03T16:48:13.160Z,102210.23
2019-01-03T16:51:16.052Z,102214.28
2019-01-03T16:54:18.968Z,102216.36
2019-01-03T16:57:21.867Z,102206.44
2019-01-03T17:00:25.599Z,102211.02
2019-01-03T17:03:28.930Z,102213.36
2019-01-03T17:06:32.604Z,102214.26
2019-01-03T17:09:35.515Z,102210.00
2019-01-03T17:12:38.454Z,102217.30
2019-01-03T17:15:41.388Z,102219.44
2019-01-03T17:18:44.289Z,102215.51
2019-01-03T17:21:47.207Z,102219.16
2019-01-03T17:24:50.984Z,102227.38
2019-01-03T17:27:53.889Z,102228.33
2019-01-03T17:30:56.811Z,102229.45
2019-01-03T17:33:59.711Z,102240.48
2019-01-03T17:37:02.926Z,102234.09
2019-01-03T17:40:09.031Z,102226.34
2019-01-03T17:43:12.071Z,102222.22
2019-01-03T17:46:16.379Z,102221.87
2019-01-03T17:49:19.893Z,102220.14
2019-01-03T17:52:23.128Z,102220.23
2019-01-03T17:55:26.383Z,102216.55
2019-01-03T17:58:29.735Z,102202.77
2019-01-03T18:01:33.070Z,102204.34
2019-01-03T18:04:36.836Z,102210.39
2019-01-03T18:07:40.122Z,102211.09
2019-01-03T18:10:44.127Z,102231.66
2019-01-03T18:13:47.092Z,102225.10
2019-01-03T18:16:49.995Z,102229.64
2019-01-03T18:19:52.917Z,102227.59
2019-01-03T18:22:55.839Z,102231.88
2019-01-03T18:25:58.755Z,102232.42
2019-01-03T18:29:01.661Z,102228.20
2019-01-03T18:32:04.703Z,102228.11
2019-01-03T18:35:08.657Z,102228.14
2019-01-03T18:38:11.571Z,102230.77
2019-01-03T18:41:15.207Z,102227.28
2019-01-03T18:44:18.139Z,102228.94
2019-01-03T18:47:21.684Z,102230.61
2019-01-03T18:50:24.979Z,102226.67
2019-01-03T18:53:27.877Z,102232.88
2019-01-03T18:56:31.628Z,102232.46
2019-01-03T18:59:35.314Z,102225.48
2019-01-03T19:02:38.248Z,102228.94
2019-01-03T19:05:41.148Z,102227.98
2019-01-03T19:08:44.404Z,102221.55
2019-01-03T19:11:47.961Z,102230.61
2019-01-03T19:14:51.279Z,102233.64
2019-01-03T19:17:54.203Z,102236.65
2019-01-03T19:20:57.216Z,102246.53
2019-01-03T19:24:00.141Z,102254.53
2019-01-03T19:27:03.184Z,102255.36
2019-01-03T19:30:08.139Z,102254.39
2019-01-03T19:33:11.410Z,102245.67
2019-01-03T19:36:14.764Z,102247.42
2019-01-03T19:39:18.101Z,102249.16
2019-01-03T19:42:21.051Z,102262.33
2019-01-03T19:45:25.242Z,102266.93
2019-01-03T19:48:28.656Z,102262.65
2019-01-03T19:51:31.995Z,102261.84
2019-01-03T19:54:35.215Z,102256.39
2019-01-03T19:57:38.170Z,102262.05
2019-01-03T20:00:41.716Z,102259.84
2019-01-03T20:03:44.657Z,102263.80
2019-01-03T20:06:47.608Z,102260.02
2019-01-03T20:09:50.848Z,102268.66
2019-01-03T20:12:53.883Z,102269.04
2019-01-03T20:15:56.873Z,102267.75
2019-01-03T20:19:01.528Z,102263.93
2019-01-03T20:22:04.552Z,102255.97
2019-01-03T20:25:08.690Z,102252.64
2019-01-03T20:28:11.709Z,102250.44
2019-01-03T20:31:14.618Z,102242.23
2019-01-03T20:34:18.691Z,102242.30
2019-01-03T20:37:23.494Z,102248.39
2019-01-03T20:40:26.506Z,102255.42
2019-01-03T20:43:29.808Z,102254.66
2019-01-03T20:46:33.186Z,102252.94
2019-01-03T20:49:36.096Z,102246.38
2019-01-03T20:52:39.421Z,102256.08
2019-01-03T20:55:42.332Z,102260.81
2019-01-03T20:58:45.380Z,102260.55
2019-01-03T21:01:48.313Z,102259.09
2019-01-03T21:04:51.315Z,102262.12
2019-01-03T21:07:54.956Z,102263.09
2019-01-03T21:10:57.879Z,102267.21
2019-01-03T21:14:01.143Z,102264.72
2019-01-03T21:17:04.123Z,102265.66
2019-01-03T21:20:08.944Z,102262.69
2019-01-03T21:23:11.875Z,102257.78
2019-01-03T21:26:15.233Z,102264.83
2019-01-03T21:29:18.164Z,102266.30
2019-01-03T21:32:21.101Z,102254.29
2019-01-03T21:35:25.739Z,102261.08
2019-01-03T21:38:29.342Z,102265.64
2019-01-03T21:41:32.599Z,102275.15
2019-01-03T21:44:35.498Z,102272.94
2019-01-03T21:47:38.448Z,102269.91
2019-01-03T21:50:41.730Z,102271.39
2019-01-03T21:53:45.015Z,102263.36
2019-01-03T21:56:49.413Z,102268.91
2019-01-03T21:59:53.029Z,102275.08
2019-01-03T22:02:56.355Z,102268.77
2019-01-03T22:05:59.945Z,102269.91
2019-01-03T22:09:04.559Z,102270.08
2019-01-03T22:12:08.580Z,102275.98
2019-01-03T22:15:11.838Z,102266.46
2019-01-03T22:18:15.290Z,102262.77
2019-01-03T22:21:18.553Z,102265.56
2019-01-03T22:24:21.848Z,102264.53
2019-01-03T22:27:25.550Z,102274.59
2019-01-03T22:30:28.850Z,102267.53
2019-01-03T22:33:31.785Z,102261.69
2019-01-03T22:36:34.999Z,102260.37
2019-01-03T22:39:38.528Z,102257.69
2019-01-03T22:42:41.588Z,102255.59
2019-01-03T22:45:44.703Z,102262.94
2019-01-03T22:48:47.715Z,102264.17
2019-01-03T22:51:50.924Z,102265.62
2019-01-03T22:54:54.186Z,102258.22
2019-01-03T22:57:57.085Z,102258.42
2019-01-03T23:01:00.215Z,102261.69
2019-01-03T23:04:03.218Z,102252.70
2019-01-03T23:07:06.444Z,102247.45
2019-01-03T23:10:09.480Z,102248.52
2019-01-03T23:13:13.106Z,102242.56
2019-01-03T23:16:16.389Z,102244.67
2019-01-03T23:19:19.347Z,102237.50
2019-01-03T23:22:22.632Z,102235.95
2019-01-03T23:25:25.971Z,102243.47
2019-01-03T23:28:28.904Z,102243.16
2019-01-03T23:31:31.820Z,102237.40
2019-01-03T23:34:34.722Z,102244.35
2019-01-03T23:37:37.646Z,102249.26
2019-01-03T23:40:40.882Z,102249.84
2019-01-03T23:43:43.807Z,102251.88
2019-01-03T23:46:46.737Z,102249.12
2019-01-03T23:50:11.014Z,102242.98
2019-01-03T23:53:26.874Z,102250.78
2019-01-03T23:56:49.311Z,102252.73
